sensor_id;sensor_type;location;lat;lon;timestamp;P1;durP1;ratioP1;P2;durP2;ratioP2
45402;SDS011;47427;51.976;5.326;2023-02-28T00:02:31;9.00;;;6.78;;
45402;SDS011;47427;51.976;5.326;2023-02-28T00:06:01;9.85;;;6.85;;
45402;SDS011;47427;51.976;5.326;2023-02-28T00:09:28;10.05;;;6.90;;
45402;SDS011;47427;51.976;5.326;2023-02-28T00:13:01;9.90;;;6.65;;
45402;SDS011;47427;51.976;5.326;2023-02-28T00:16:31;18.75;;;6.57;;
45402;SDS011;47427;51.976;5.326;2023-02-28T00:19:58;8.77;;;6.55;;
45402;SDS011;47427;51.976;5.326;2023-02-28T00:23:39;11.65;;;6.90;;
45402;SDS011;47427;51.976;5.326;2023-02-28T00:27:14;9.00;;;6.97;;
45402;SDS011;47427;51.976;5.326;2023-02-28T00:30:36;9.90;;;6.72;;
45402;SDS011;47427;51.976;5.326;2023-02-28T00:34:02;7.20;;;6.50;;
45402;SDS011;47427;51.976;5.326;2023-02-28T00:41:05;12.63;;;7.00;;
45402;SDS011;47427;51.976;5.326;2023-02-28T00:44:42;10.73;;;6.97;;
45402;SDS011;47427;51.976;5.326;2023-02-28T00:48:12;12.95;;;8.45;;
45402;SDS011;47427;51.976;5.326;2023-02-28T00:51:40;13.35;;;9.23;;
45402;SDS011;47427;51.976;5.326;2023-02-28T00:55:14;10.98;;;8.38;;
45402;SDS011;47427;51.976;5.326;2023-02-28T00:58:42;13.43;;;9.07;;
45402;SDS011;47427;51.976;5.326;2023-02-28T01:02:16;14.00;;;9.02;;
45402;SDS011;47427;51.976;5.326;2023-02-28T01:05:39;9.93;;;7.80;;
45402;SDS011;47427;51.976;5.326;2023-02-28T01:09:14;11.98;;;8.77;;
45402;SDS011;47427;51.976;5.326;2023-02-28T01:12:39;19.52;;;8.65;;
45402;SDS011;47427;51.976;5.326;2023-02-28T01:16:18;11.70;;;7.05;;
45402;SDS011;47427;51.976;5.326;2023-02-28T01:19:40;9.82;;;6.95;;
45402;SDS011;47427;51.976;5.326;2023-02-28T01:23:29;8.00;;;6.18;;
45402;SDS011;47427;51.976;5.326;2023-02-28T01:26:59;9.40;;;6.78;;
45402;SDS011;47427;51.976;5.326;2023-02-28T01:30:34;8.82;;;6.35;;
45402;SDS011;47427;51.976;5.326;2023-02-28T01:34:11;10.63;;;6.90;;
45402;SDS011;47427;51.976;5.326;2023-02-28T01:37:35;10.85;;;6.80;;
45402;SDS011;47427;51.976;5.326;2023-02-28T01:42:13;10.05;;;6.30;;
45402;SDS011;47427;51.976;5.326;2023-02-28T01:45:41;9.77;;;8.18;;
45402;SDS011;47427;51.976;5.326;2023-02-28T01:49:08;11.35;;;6.43;;
45402;SDS011;47427;51.976;5.326;2023-02-28T01:52:35;9.70;;;6.68;;
45402;SDS011;47427;51.976;5.326;2023-02-28T01:55:57;11.52;;;6.68;;
45402;SDS011;47427;51.976;5.326;2023-02-28T01:59:38;8.15;;;6.80;;
45402;SDS011;47427;51.976;5.326;2023-02-28T02:03:16;7.78;;;6.65;;
45402;SDS011;47427;51.976;5.326;2023-02-28T02:06:46;8.10;;;6.63;;
45402;SDS011;47427;51.976;5.326;2023-02-28T02:10:29;15.35;;;7.10;;
45402;SDS011;47427;51.976;5.326;2023-02-28T02:14:04;9.10;;;6.95;;
45402;SDS011;47427;51.976;5.326;2023-02-28T02:17:57;9.70;;;6.85;;
45402;SDS011;47427;51.976;5.326;2023-02-28T02:21:55;33.97;;;8.88;;
45402;SDS011;47427;51.976;5.326;2023-02-28T02:33:06;11.20;;;6.85;;
45402;SDS011;47427;51.976;5.326;2023-02-28T02:37:23;10.82;;;7.25;;
45402;SDS011;47427;51.976;5.326;2023-02-28T02:49:30;8.88;;;7.10;;
45402;SDS011;47427;51.976;5.326;2023-02-28T02:53:00;9.27;;;6.97;;
45402;SDS011;47427;51.976;5.326;2023-02-28T02:56:35;8.95;;;7.03;;
45402;SDS011;47427;51.976;5.326;2023-02-28T03:00:04;9.88;;;6.93;;
45402;SDS011;47427;51.976;5.326;2023-02-28T03:03:30;11.10;;;6.80;;
45402;SDS011;47427;51.976;5.326;2023-02-28T03:07:00;9.05;;;7.07;;
45402;SDS011;47427;51.976;5.326;2023-02-28T03:10:27;10.13;;;6.80;;
45402;SDS011;47427;51.976;5.326;2023-02-28T03:29:28;11.38;;;7.97;;
45402;SDS011;47427;51.976;5.326;2023-02-28T03:33:18;10.57;;;7.32;;
45402;SDS011;47427;51.976;5.326;2023-02-28T03:37:00;10.02;;;7.85;;
45402;SDS011;47427;51.976;5.326;2023-02-28T03:40:28;12.05;;;7.40;;
45402;SDS011;47427;51.976;5.326;2023-02-28T03:47:55;10.25;;;7.18;;
45402;SDS011;47427;51.976;5.326;2023-02-28T03:51:38;11.43;;;7.25;;
45402;SDS011;47427;51.976;5.326;2023-02-28T03:55:18;10.95;;;6.95;;
45402;SDS011;47427;51.976;5.326;2023-02-28T03:58:47;8.52;;;7.50;;
45402;SDS011;47427;51.976;5.326;2023-02-28T04:02:20;9.15;;;7.43;;
45402;SDS011;47427;51.976;5.326;2023-02-28T04:09:54;11.10;;;8.40;;
45402;SDS011;47427;51.976;5.326;2023-02-28T04:13:18;11.27;;;7.63;;
45402;SDS011;47427;51.976;5.326;2023-02-28T04:17:14;12.98;;;8.20;;
45402;SDS011;47427;51.976;5.326;2023-02-28T04:21:06;9.63;;;7.25;;
45402;SDS011;47427;51.976;5.326;2023-02-28T04:24:30;8.23;;;6.70;;
45402;SDS011;47427;51.976;5.326;2023-02-28T04:27:54;11.07;;;6.50;;
45402;SDS011;47427;51.976;5.326;2023-02-28T04:31:17;7.40;;;6.80;;
45402;SDS011;47427;51.976;5.326;2023-02-28T04:34:43;12.65;;;7.40;;
45402;SDS011;47427;51.976;5.326;2023-02-28T04:38:07;7.25;;;6.55;;
45402;SDS011;47427;51.976;5.326;2023-02-28T04:41:36;6.72;;;6.07;;
45402;SDS011;47427;51.976;5.326;2023-02-28T04:45:01;7.38;;;6.45;;
45402;SDS011;47427;51.976;5.326;2023-02-28T04:48:50;7.88;;;5.80;;
45402;SDS011;47427;51.976;5.326;2023-02-28T04:52:15;13.25;;;8.35;;
45402;SDS011;47427;51.976;5.326;2023-02-28T04:55:40;8.02;;;6.18;;
45402;SDS011;47427;51.976;5.326;2023-02-28T04:59:10;6.20;;;5.63;;
45402;SDS011;47427;51.976;5.326;2023-02-28T05:02:33;6.80;;;6.10;;
45402;SDS011;47427;51.976;5.326;2023-02-28T05:06:23;7.13;;;6.40;;
45402;SDS011;47427;51.976;5.326;2023-02-28T05:10:08;7.68;;;5.55;;
45402;SDS011;47427;51.976;5.326;2023-02-28T05:13:29;6.75;;;5.82;;
45402;SDS011;47427;51.976;5.326;2023-02-28T05:16:51;6.95;;;6.35;;
45402;SDS011;47427;51.976;5.326;2023-02-28T05:20:22;7.30;;;6.60;;
45402;SDS011;47427;51.976;5.326;2023-02-28T05:23:55;9.23;;;6.50;;
45402;SDS011;47427;51.976;5.326;2023-02-28T05:27:22;7.88;;;6.75;;
45402;SDS011;47427;51.976;5.326;2023-02-28T05:30:52;7.20;;;6.50;;
45402;SDS011;47427;51.976;5.326;2023-02-28T05:34:20;15.15;;;7.90;;
45402;SDS011;47427;51.976;5.326;2023-02-28T05:37:53;9.30;;;6.28;;
45402;SDS011;47427;51.976;5.326;2023-02-28T05:41:18;8.30;;;6.68;;
45402;SDS011;47427;51.976;5.326;2023-02-28T05:44:42;7.23;;;6.57;;
45402;SDS011;47427;51.976;5.326;2023-02-28T05:48:06;9.85;;;7.03;;
45402;SDS011;47427;51.976;5.326;2023-02-28T05:51:31;9.00;;;6.60;;
45402;SDS011;47427;51.976;5.326;2023-02-28T05:54:58;9.20;;;6.03;;
45402;SDS011;47427;51.976;5.326;2023-02-28T05:58:24;6.60;;;5.68;;
45402;SDS011;47427;51.976;5.326;2023-02-28T06:01:52;8.68;;;6.68;;
45402;SDS011;47427;51.976;5.326;2023-02-28T06:05:17;7.35;;;6.68;;
45402;SDS011;47427;51.976;5.326;2023-02-28T06:08:46;6.72;;;6.03;;
45402;SDS011;47427;51.976;5.326;2023-02-28T06:12:20;8.88;;;6.60;;
45402;SDS011;47427;51.976;5.326;2023-02-28T06:15:41;9.98;;;6.82;;
45402;SDS011;47427;51.976;5.326;2023-02-28T06:19:29;7.32;;;6.65;;
45402;SDS011;47427;51.976;5.326;2023-02-28T06:22:55;7.75;;;6.97;;
45402;SDS011;47427;51.976;5.326;2023-02-28T06:26:44;7.88;;;7.15;;
45402;SDS011;47427;51.976;5.326;2023-02-28T06:30:12;11.55;;;7.28;;
45402;SDS011;47427;51.976;5.326;2023-02-28T06:37:25;7.40;;;6.80;;
45402;SDS011;47427;51.976;5.326;2023-02-28T06:41:15;8.40;;;6.05;;
45402;SDS011;47427;51.976;5.326;2023-02-28T06:44:50;7.95;;;7.15;;
45402;SDS011;47427;51.976;5.326;2023-02-28T06:48:25;9.50;;;8.15;;
45402;SDS011;47427;51.976;5.326;2023-02-28T06:52:07;7.97;;;7.28;;
45402;SDS011;47427;51.976;5.326;2023-02-28T06:55:32;9.43;;;7.40;;
45402;SDS011;47427;51.976;5.326;2023-02-28T06:59:07;10.60;;;9.55;;
45402;SDS011;47427;51.976;5.326;2023-02-28T07:02:47;17.25;;;9.48;;
45402;SDS011;47427;51.976;5.326;2023-02-28T07:06:18;9.70;;;7.38;;
45402;SDS011;47427;51.976;5.326;2023-02-28T07:09:53;8.50;;;7.70;;
45402;SDS011;47427;51.976;5.326;2023-02-28T07:16:49;11.65;;;7.40;;
45402;SDS011;47427;51.976;5.326;2023-02-28T07:20:13;8.60;;;7.25;;
45402;SDS011;47427;51.976;5.326;2023-02-28T07:23:41;11.13;;;7.78;;
45402;SDS011;47427;51.976;5.326;2023-02-28T07:27:06;11.02;;;7.50;;
45402;SDS011;47427;51.976;5.326;2023-02-28T07:30:27;8.60;;;7.90;;
45402;SDS011;47427;51.976;5.326;2023-02-28T07:34:05;12.20;;;9.88;;
45402;SDS011;47427;51.976;5.326;2023-02-28T07:37:27;10.27;;;9.20;;
45402;SDS011;47427;51.976;5.326;2023-02-28T07:40:57;8.57;;;7.40;;
45402;SDS011;47427;51.976;5.326;2023-02-28T07:44:18;11.70;;;8.00;;
45402;SDS011;47427;51.976;5.326;2023-02-28T07:47:40;8.57;;;7.32;;
45402;SDS011;47427;51.976;5.326;2023-02-28T07:51:04;11.70;;;7.43;;
45402;SDS011;47427;51.976;5.326;2023-02-28T07:54:27;8.93;;;7.20;;
45402;SDS011;47427;51.976;5.326;2023-02-28T07:57:51;7.82;;;6.97;;
45402;SDS011;47427;51.976;5.326;2023-02-28T08:01:12;10.35;;;9.00;;
45402;SDS011;47427;51.976;5.326;2023-02-28T08:04:42;10.88;;;9.85;;
45402;SDS011;47427;51.976;5.326;2023-02-28T08:08:08;7.35;;;6.72;;
45402;SDS011;47427;51.976;5.326;2023-02-28T08:11:44;9.85;;;8.63;;
45402;SDS011;47427;51.976;5.326;2023-02-28T08:15:10;10.45;;;9.55;;
45402;SDS011;47427;51.976;5.326;2023-02-28T08:18:31;6.40;;;5.90;;
45402;SDS011;47427;51.976;5.326;2023-02-28T08:22:05;6.55;;;6.05;;
45402;SDS011;47427;51.976;5.326;2023-02-28T08:25:33;10.27;;;9.13;;
45402;SDS011;47427;51.976;5.326;2023-02-28T08:28:54;6.35;;;5.85;;
45402;SDS011;47427;51.976;5.326;2023-02-28T08:32:18;7.18;;;6.50;;
45402;SDS011;47427;51.976;5.326;2023-02-28T08:36:26;9.20;;;6.43;;
45402;SDS011;47427;51.976;5.326;2023-02-28T08:39:49;10.45;;;8.57;;
45402;SDS011;47427;51.976;5.326;2023-02-28T08:43:10;7.07;;;6.35;;
45402;SDS011;47427;51.976;5.326;2023-02-28T08:46:32;6.88;;;6.07;;
45402;SDS011;47427;51.976;5.326;2023-02-28T08:50:03;5.68;;;5.28;;
45402;SDS011;47427;51.976;5.326;2023-02-28T08:53:29;5.50;;;5.10;;
45402;SDS011;47427;51.976;5.326;2023-02-28T08:57:11;6.20;;;5.70;;
45402;SDS011;47427;51.976;5.326;2023-02-28T09:00:34;5.60;;;5.20;;
45402;SDS011;47427;51.976;5.326;2023-02-28T09:03:57;6.38;;;5.47;;
45402;SDS011;47427;51.976;5.326;2023-02-28T09:07:24;4.80;;;4.45;;
45402;SDS011;47427;51.976;5.326;2023-02-28T09:10:47;6.93;;;4.70;;
45402;SDS011;47427;51.976;5.326;2023-02-28T09:14:15;5.18;;;4.30;;
45402;SDS011;47427;51.976;5.326;2023-02-28T09:17:49;11.73;;;7.35;;
45402;SDS011;47427;51.976;5.326;2023-02-28T09:21:11;4.50;;;4.20;;
45402;SDS011;47427;51.976;5.326;2023-02-28T09:24:37;4.10;;;3.80;;
45402;SDS011;47427;51.976;5.326;2023-02-28T09:28:01;5.80;;;5.20;;
45402;SDS011;47427;51.976;5.326;2023-02-28T09:31:26;7.03;;;6.20;;
45402;SDS011;47427;51.976;5.326;2023-02-28T09:34:51;5.75;;;5.20;;
45402;SDS011;47427;51.976;5.326;2023-02-28T09:38:35;5.32;;;4.80;;
45402;SDS011;47427;51.976;5.326;2023-02-28T09:41:58;5.25;;;4.35;;
45402;SDS011;47427;51.976;5.326;2023-02-28T09:48:58;5.18;;;4.78;;
45402;SDS011;47427;51.976;5.326;2023-02-28T09:52:30;5.40;;;4.82;;
45402;SDS011;47427;51.976;5.326;2023-02-28T09:55:58;8.57;;;7.68;;
45402;SDS011;47427;51.976;5.326;2023-02-28T09:59:35;4.93;;;4.50;;
45402;SDS011;47427;51.976;5.326;2023-02-28T10:11:25;6.47;;;5.97;;
45402;SDS011;47427;51.976;5.326;2023-02-28T10:15:01;5.45;;;5.05;;
45402;SDS011;47427;51.976;5.326;2023-02-28T10:18:38;5.65;;;5.25;;
45402;SDS011;47427;51.976;5.326;2023-02-28T10:22:14;5.28;;;4.97;;
45402;SDS011;47427;51.976;5.326;2023-02-28T10:25:52;5.38;;;5.07;;
45402;SDS011;47427;51.976;5.326;2023-02-28T10:29:31;5.65;;;5.25;;
45402;SDS011;47427;51.976;5.326;2023-02-28T10:33:05;7.85;;;7.18;;
45402;SDS011;47427;51.976;5.326;2023-02-28T10:36:35;7.40;;;6.82;;
45402;SDS011;47427;51.976;5.326;2023-02-28T10:40:02;9.05;;;7.75;;
45402;SDS011;47427;51.976;5.326;2023-02-28T10:43:33;7.20;;;6.68;;
45402;SDS011;47427;51.976;5.326;2023-02-28T10:46:59;7.93;;;7.30;;
45402;SDS011;47427;51.976;5.326;2023-02-28T10:54:22;6.47;;;5.83;;
45402;SDS011;47427;51.976;5.326;2023-02-28T10:57:52;44.15;;;25.40;;
45402;SDS011;47427;51.976;5.326;2023-02-28T11:01:17;26.77;;;18.02;;
45402;SDS011;47427;51.976;5.326;2023-02-28T11:05:34;12.05;;;10.75;;
45402;SDS011;47427;51.976;5.326;2023-02-28T11:09:00;7.32;;;6.82;;
45402;SDS011;47427;51.976;5.326;2023-02-28T11:12:54;5.70;;;5.30;;
45402;SDS011;47427;51.976;5.326;2023-02-28T11:16:17;5.15;;;4.75;;
45402;SDS011;47427;51.976;5.326;2023-02-28T11:19:58;5.65;;;5.25;;
45402;SDS011;47427;51.976;5.326;2023-02-28T11:27:54;5.15;;;4.85;;
45402;SDS011;47427;51.976;5.326;2023-02-28T11:35:02;5.13;;;4.72;;
45402;SDS011;47427;51.976;5.326;2023-02-28T11:38:30;5.45;;;4.95;;
45402;SDS011;47427;51.976;5.326;2023-02-28T12:01:56;5.70;;;5.30;;
45402;SDS011;47427;51.976;5.326;2023-02-28T12:05:51;8.15;;;5.32;;
45402;SDS011;47427;51.976;5.326;2023-02-28T12:10:17;7.03;;;5.40;;
45402;SDS011;47427;51.976;5.326;2023-02-28T12:14:06;5.38;;;5.07;;
45402;SDS011;47427;51.976;5.326;2023-02-28T12:25:51;5.90;;;5.40;;
45402;SDS011;47427;51.976;5.326;2023-02-28T12:30:00;5.65;;;5.25;;
45402;SDS011;47427;51.976;5.326;2023-02-28T12:33:37;5.65;;;5.13;;
45402;SDS011;47427;51.976;5.326;2023-02-28T12:37:08;5.07;;;4.78;;
45402;SDS011;47427;51.976;5.326;2023-02-28T12:45:02;5.50;;;4.97;;
45402;SDS011;47427;51.976;5.326;2023-02-28T12:53:05;5.40;;;5.07;;
45402;SDS011;47427;51.976;5.326;2023-02-28T12:56:58;5.60;;;5.20;;
45402;SDS011;47427;51.976;5.326;2023-02-28T13:00:37;5.53;;;5.22;;
45402;SDS011;47427;51.976;5.326;2023-02-28T13:08:37;5.70;;;5.30;;
45402;SDS011;47427;51.976;5.326;2023-02-28T13:12:16;6.45;;;6.05;;
45402;SDS011;47427;51.976;5.326;2023-02-28T13:15:39;5.80;;;5.50;;
45402;SDS011;47427;51.976;5.326;2023-02-28T13:19:16;6.40;;;6.00;;
45402;SDS011;47427;51.976;5.326;2023-02-28T13:23:35;6.13;;;5.60;;
45402;SDS011;47427;51.976;5.326;2023-02-28T13:31:02;5.78;;;5.38;;
45402;SDS011;47427;51.976;5.326;2023-02-28T13:34:31;5.90;;;5.57;;
45402;SDS011;47427;51.976;5.326;2023-02-28T13:38:09;6.03;;;5.63;;
45402;SDS011;47427;51.976;5.326;2023-02-28T13:41:43;6.28;;;5.82;;
45402;SDS011;47427;51.976;5.326;2023-02-28T13:48:28;5.78;;;5.43;;
45402;SDS011;47427;51.976;5.326;2023-02-28T13:51:51;9.50;;;8.63;;
45402;SDS011;47427;51.976;5.326;2023-02-28T13:59:07;34.22;;;25.02;;
45402;SDS011;47427;51.976;5.326;2023-02-28T14:06:47;23.65;;;17.60;;
45402;SDS011;47427;51.976;5.326;2023-02-28T14:10:25;18.35;;;13.27;;
45402;SDS011;47427;51.976;5.326;2023-02-28T14:13:56;12.93;;;11.00;;
45402;SDS011;47427;51.976;5.326;2023-02-28T14:17:22;9.00;;;7.40;;
45402;SDS011;47427;51.976;5.326;2023-02-28T14:20:57;10.07;;;9.07;;
45402;SDS011;47427;51.976;5.326;2023-02-28T14:28:49;10.52;;;9.43;;
45402;SDS011;47427;51.976;5.326;2023-02-28T14:32:44;11.82;;;9.80;;
45402;SDS011;47427;51.976;5.326;2023-02-28T14:36:51;39.97;;;25.27;;
45402;SDS011;47427;51.976;5.326;2023-02-28T14:40:30;17.45;;;13.52;;
45402;SDS011;47427;51.976;5.326;2023-02-28T14:44:17;21.13;;;15.52;;
45402;SDS011;47427;51.976;5.326;2023-02-28T14:47:46;20.73;;;14.60;;
45402;SDS011;47427;51.976;5.326;2023-02-28T14:51:17;13.90;;;12.38;;
45402;SDS011;47427;51.976;5.326;2023-02-28T14:54:47;22.35;;;18.33;;
45402;SDS011;47427;51.976;5.326;2023-02-28T14:58:30;9.68;;;8.77;;
45402;SDS011;47427;51.976;5.326;2023-02-28T15:06:03;5.13;;;4.75;;
45402;SDS011;47427;51.976;5.326;2023-02-28T15:10:06;6.60;;;5.85;;
45402;SDS011;47427;51.976;5.326;2023-02-28T15:13:46;10.32;;;9.32;;
45402;SDS011;47427;51.976;5.326;2023-02-28T15:17:14;11.45;;;9.70;;
45402;SDS011;47427;51.976;5.326;2023-02-28T15:20:46;10.23;;;9.05;;
45402;SDS011;47427;51.976;5.326;2023-02-28T15:24:35;11.25;;;10.05;;
45402;SDS011;47427;51.976;5.326;2023-02-28T15:28:16;28.75;;;17.02;;
45402;SDS011;47427;51.976;5.326;2023-02-28T15:31:48;11.68;;;8.43;;
45402;SDS011;47427;51.976;5.326;2023-02-28T15:39:19;7.85;;;7.03;;
45402;SDS011;47427;51.976;5.326;2023-02-28T15:43:02;13.40;;;8.32;;
45402;SDS011;47427;51.976;5.326;2023-02-28T15:46:39;16.65;;;12.55;;
45402;SDS011;47427;51.976;5.326;2023-02-28T15:50:22;9.05;;;8.07;;
45402;SDS011;47427;51.976;5.326;2023-02-28T15:53:50;8.48;;;7.55;;
45402;SDS011;47427;51.976;5.326;2023-02-28T15:57:24;7.95;;;7.25;;
45402;SDS011;47427;51.976;5.326;2023-02-28T16:01:07;15.45;;;13.77;;
45402;SDS011;47427;51.976;5.326;2023-02-28T16:13:04;5.45;;;5.05;;
45402;SDS011;47427;51.976;5.326;2023-02-28T16:16:43;5.82;;;5.32;;
45402;SDS011;47427;51.976;5.326;2023-02-28T16:20:14;8.13;;;7.43;;
45402;SDS011;47427;51.976;5.326;2023-02-28T16:23:55;6.97;;;6.40;;
45402;SDS011;47427;51.976;5.326;2023-02-28T16:31:19;6.28;;;5.35;;
45402;SDS011;47427;51.976;5.326;2023-02-28T16:34:47;5.22;;;4.72;;
45402;SDS011;47427;51.976;5.326;2023-02-28T16:38:15;5.90;;;5.50;;
45402;SDS011;47427;51.976;5.326;2023-02-28T16:41:48;5.28;;;4.90;;
45402;SDS011;47427;51.976;5.326;2023-02-28T16:45:23;5.80;;;5.30;;
45402;SDS011;47427;51.976;5.326;2023-02-28T16:48:49;5.85;;;5.30;;
45402;SDS011;47427;51.976;5.326;2023-02-28T16:52:33;5.70;;;5.20;;
45402;SDS011;47427;51.976;5.326;2023-02-28T16:56:00;5.82;;;5.25;;
45402;SDS011;47427;51.976;5.326;2023-02-28T16:59:25;5.32;;;4.90;;
45402;SDS011;47427;51.976;5.326;2023-02-28T17:02:48;6.55;;;6.05;;
45402;SDS011;47427;51.976;5.326;2023-02-28T17:06:30;6.25;;;5.75;;
45402;SDS011;47427;51.976;5.326;2023-02-28T17:10:14;7.07;;;5.60;;
45402;SDS011;47427;51.976;5.326;2023-02-28T17:13:47;8.07;;;5.90;;
45402;SDS011;47427;51.976;5.326;2023-02-28T17:17:17;8.43;;;6.00;;
45402;SDS011;47427;51.976;5.326;2023-02-28T17:21:01;6.35;;;5.75;;
45402;SDS011;47427;51.976;5.326;2023-02-28T17:24:47;6.20;;;5.70;;
45402;SDS011;47427;51.976;5.326;2023-02-28T17:28:11;6.45;;;5.95;;
45402;SDS011;47427;51.976;5.326;2023-02-28T17:31:42;7.57;;;6.78;;
45402;SDS011;47427;51.976;5.326;2023-02-28T17:35:13;12.18;;;6.78;;
45402;SDS011;47427;51.976;5.326;2023-02-28T17:38:40;8.95;;;8.07;;
45402;SDS011;47427;51.976;5.326;2023-02-28T17:42:22;13.73;;;10.40;;
45402;SDS011;47427;51.976;5.326;2023-02-28T17:45:50;35.60;;;20.90;;
45402;SDS011;47427;51.976;5.326;2023-02-28T17:49:13;31.48;;;18.33;;
45402;SDS011;47427;51.976;5.326;2023-02-28T17:52:46;20.58;;;14.52;;
45402;SDS011;47427;51.976;5.326;2023-02-28T17:56:12;18.25;;;13.23;;
45402;SDS011;47427;51.976;5.326;2023-02-28T17:59:42;17.90;;;11.95;;
45402;SDS011;47427;51.976;5.326;2023-02-28T18:03:08;10.38;;;8.63;;
45402;SDS011;47427;51.976;5.326;2023-02-28T18:10:09;9.10;;;8.10;;
45402;SDS011;47427;51.976;5.326;2023-02-28T18:13:54;8.50;;;7.60;;
45402;SDS011;47427;51.976;5.326;2023-02-28T18:17:32;9.55;;;7.70;;
45402;SDS011;47427;51.976;5.326;2023-02-28T18:20:54;9.18;;;7.78;;
45402;SDS011;47427;51.976;5.326;2023-02-28T18:24:28;8.98;;;6.90;;
45402;SDS011;47427;51.976;5.326;2023-02-28T18:27:51;11.27;;;10.05;;
45402;SDS011;47427;51.976;5.326;2023-02-28T18:31:19;13.48;;;8.88;;
45402;SDS011;47427;51.976;5.326;2023-02-28T18:34:43;12.23;;;8.82;;
45402;SDS011;47427;51.976;5.326;2023-02-28T18:38:37;10.30;;;8.18;;
45402;SDS011;47427;51.976;5.326;2023-02-28T18:42:07;8.65;;;7.82;;
45402;SDS011;47427;51.976;5.326;2023-02-28T18:45:41;9.48;;;8.55;;
45402;SDS011;47427;51.976;5.326;2023-02-28T18:49:10;9.63;;;7.82;;
45402;SDS011;47427;51.976;5.326;2023-02-28T18:52:34;9.25;;;8.27;;
45402;SDS011;47427;51.976;5.326;2023-02-28T18:56:00;10.88;;;7.70;;
45402;SDS011;47427;51.976;5.326;2023-02-28T18:59:27;10.95;;;7.25;;
45402;SDS011;47427;51.976;5.326;2023-02-28T19:03:05;8.32;;;7.22;;
45402;SDS011;47427;51.976;5.326;2023-02-28T19:06:28;8.77;;;7.85;;
45402;SDS011;47427;51.976;5.326;2023-02-28T19:10:08;8.02;;;6.82;;
45402;SDS011;47427;51.976;5.326;2023-02-28T19:13:42;8.25;;;7.05;;
45402;SDS011;47427;51.976;5.326;2023-02-28T19:17:04;8.07;;;7.28;;
45402;SDS011;47427;51.976;5.326;2023-02-28T19:20:28;10.27;;;7.93;;
45402;SDS011;47427;51.976;5.326;2023-02-28T19:23:50;7.82;;;7.03;;
45402;SDS011;47427;51.976;5.326;2023-02-28T19:27:16;10.27;;;7.70;;
45402;SDS011;47427;51.976;5.326;2023-02-28T19:30:49;14.18;;;9.27;;
45402;SDS011;47427;51.976;5.326;2023-02-28T19:34:13;13.52;;;9.25;;
45402;SDS011;47427;51.976;5.326;2023-02-28T19:37:38;15.98;;;10.38;;
45402;SDS011;47427;51.976;5.326;2023-02-28T19:41:08;20.60;;;13.73;;
45402;SDS011;47427;51.976;5.326;2023-02-28T19:44:41;26.08;;;15.23;;
45402;SDS011;47427;51.976;5.326;2023-02-28T19:48:09;40.67;;;20.02;;
45402;SDS011;47427;51.976;5.326;2023-02-28T19:51:43;86.28;;;39.50;;
45402;SDS011;47427;51.976;5.326;2023-02-28T19:55:11;74.28;;;35.55;;
45402;SDS011;47427;51.976;5.326;2023-02-28T19:58:42;73.43;;;38.88;;
45402;SDS011;47427;51.976;5.326;2023-02-28T20:02:11;91.70;;;45.90;;
45402;SDS011;47427;51.976;5.326;2023-02-28T20:05:36;93.63;;;45.15;;
45402;SDS011;47427;51.976;5.326;2023-02-28T20:09:21;67.72;;;34.88;;
45402;SDS011;47427;51.976;5.326;2023-02-28T20:12:42;64.28;;;34.75;;
45402;SDS011;47427;51.976;5.326;2023-02-28T20:16:19;57.75;;;30.88;;
45402;SDS011;47427;51.976;5.326;2023-02-28T20:19:43;46.55;;;25.40;;
45402;SDS011;47427;51.976;5.326;2023-02-28T20:23:11;31.98;;;20.27;;
45402;SDS011;47427;51.976;5.326;2023-02-28T20:26:34;28.00;;;19.90;;
45402;SDS011;47427;51.976;5.326;2023-02-28T20:30:05;21.10;;;15.00;;
45402;SDS011;47427;51.976;5.326;2023-02-28T20:33:32;17.02;;;14.02;;
45402;SDS011;47427;51.976;5.326;2023-02-28T20:37:07;15.52;;;11.98;;
45402;SDS011;47427;51.976;5.326;2023-02-28T20:40:38;17.50;;;12.27;;
45402;SDS011;47427;51.976;5.326;2023-02-28T20:44:00;15.27;;;11.68;;
45402;SDS011;47427;51.976;5.326;2023-02-28T20:47:27;16.65;;;11.27;;
45402;SDS011;47427;51.976;5.326;2023-02-28T20:50:50;11.95;;;10.68;;
45402;SDS011;47427;51.976;5.326;2023-02-28T20:54:22;24.00;;;12.68;;
45402;SDS011;47427;51.976;5.326;2023-02-28T20:57:43;12.98;;;11.27;;
45402;SDS011;47427;51.976;5.326;2023-02-28T21:01:19;12.02;;;10.73;;
45402;SDS011;47427;51.976;5.326;2023-02-28T21:04:51;11.73;;;10.50;;
45402;SDS011;47427;51.976;5.326;2023-02-28T21:08:13;14.10;;;10.10;;
45402;SDS011;47427;51.976;5.326;2023-02-28T21:11:53;13.85;;;10.35;;
45402;SDS011;47427;51.976;5.326;2023-02-28T21:15:23;12.88;;;10.82;;
45402;SDS011;47427;51.976;5.326;2023-02-28T21:18:55;16.08;;;11.98;;
45402;SDS011;47427;51.976;5.326;2023-02-28T21:22:27;14.60;;;11.77;;
45402;SDS011;47427;51.976;5.326;2023-02-28T21:26:08;15.93;;;12.02;;
45402;SDS011;47427;51.976;5.326;2023-02-28T21:29:36;13.18;;;11.13;;
45402;SDS011;47427;51.976;5.326;2023-02-28T21:32:59;15.23;;;10.95;;
45402;SDS011;47427;51.976;5.326;2023-02-28T21:36:24;15.35;;;11.68;;
45402;SDS011;47427;51.976;5.326;2023-02-28T21:39:56;11.85;;;10.75;;
45402;SDS011;47427;51.976;5.326;2023-02-28T21:43:24;13.90;;;11.70;;
45402;SDS011;47427;51.976;5.326;2023-02-28T21:46:47;11.93;;;10.63;;
45402;SDS011;47427;51.976;5.326;2023-02-28T21:50:17;14.38;;;11.23;;
45402;SDS011;47427;51.976;5.326;2023-02-28T21:54:19;11.95;;;10.73;;
45402;SDS011;47427;51.976;5.326;2023-02-28T21:57:50;15.57;;;10.77;;
45402;SDS011;47427;51.976;5.326;2023-02-28T22:01:15;15.15;;;11.60;;
45402;SDS011;47427;51.976;5.326;2023-02-28T22:04:57;13.05;;;11.57;;
45402;SDS011;47427;51.976;5.326;2023-02-28T22:08:31;14.13;;;11.30;;
45402;SDS011;47427;51.976;5.326;2023-02-28T22:12:40;13.43;;;10.55;;
45402;SDS011;47427;51.976;5.326;2023-02-28T22:16:45;17.70;;;11.82;;
45402;SDS011;47427;51.976;5.326;2023-02-28T22:20:11;16.58;;;11.38;;
45402;SDS011;47427;51.976;5.326;2023-02-28T22:23:34;15.88;;;12.10;;
45402;SDS011;47427;51.976;5.326;2023-02-28T22:27:08;16.63;;;12.40;;
45402;SDS011;47427;51.976;5.326;2023-02-28T22:30:37;13.80;;;12.20;;
45402;SDS011;47427;51.976;5.326;2023-02-28T22:34:14;16.27;;;11.55;;
45402;SDS011;47427;51.976;5.326;2023-02-28T22:37:46;14.02;;;11.77;;
45402;SDS011;47427;51.976;5.326;2023-02-28T22:41:29;13.27;;;11.88;;
45402;SDS011;47427;51.976;5.326;2023-02-28T22:44:53;16.50;;;12.48;;
45402;SDS011;47427;51.976;5.326;2023-02-28T22:48:23;18.27;;;13.15;;
45402;SDS011;47427;51.976;5.326;2023-02-28T22:51:51;18.17;;;12.88;;
45402;SDS011;47427;51.976;5.326;2023-02-28T22:55:28;16.75;;;12.35;;
45402;SDS011;47427;51.976;5.326;2023-02-28T22:58:57;19.67;;;13.13;;
45402;SDS011;47427;51.976;5.326;2023-02-28T23:02:23;19.95;;;12.30;;
45402;SDS011;47427;51.976;5.326;2023-02-28T23:05:45;19.10;;;12.00;;
45402;SDS011;47427;51.976;5.326;2023-02-28T23:09:16;15.05;;;12.32;;
45402;SDS011;47427;51.976;5.326;2023-02-28T23:12:59;13.77;;;11.95;;
45402;SDS011;47427;51.976;5.326;2023-02-28T23:16:20;14.57;;;11.48;;
45402;SDS011;47427;51.976;5.326;2023-02-28T23:19:42;18.38;;;13.65;;
45402;SDS011;47427;51.976;5.326;2023-02-28T23:23:22;17.27;;;13.60;;
45402;SDS011;47427;51.976;5.326;2023-02-28T23:26:51;20.10;;;12.88;;
45402;SDS011;47427;51.976;5.326;2023-02-28T23:33:56;16.52;;;12.43;;
45402;SDS011;47427;51.976;5.326;2023-02-28T23:37:36;15.93;;;12.90;;
45402;SDS011;47427;51.976;5.326;2023-02-28T23:45:13;16.15;;;12.07;;
45402;SDS011;47427;51.976;5.326;2023-02-28T23:48:36;20.35;;;13.07;;
45402;SDS011;47427;51.976;5.326;2023-02-28T23:52:01;16.10;;;13.35;;
45402;SDS011;47427;51.976;5.326;2023-02-28T23:55:33;16.33;;;12.52;;